createdAt,value
2019-04-07T00:02:27.995Z,84.00
2019-04-07T00:05:10.190Z,84.20
2019-04-07T00:07:33.322Z,84.60
2019-04-07T00:10:04.284Z,84.60
2019-04-07T00:12:35.837Z,84.40
2019-04-07T00:15:10.294Z,84.30
2019-04-07T00:17:41.883Z,84.20
2019-04-07T00:20:13.788Z,84.50
2019-04-07T00:22:45.301Z,84.60
2019-04-07T00:25:16.578Z,84.50
2019-04-07T00:27:50.297Z,84.80
2019-04-07T00:30:21.596Z,85.60
2019-04-07T00:32:55.547Z,86.10
2019-04-07T00:35:32.584Z,85.20
2019-04-07T00:38:02.282Z,85.10
2019-04-07T00:43:27.661Z,85.10
2019-04-07T00:45:59.220Z,84.90
2019-04-07T00:48:29.798Z,85.10
2019-04-07T00:51:01.446Z,85.50
2019-04-07T00:53:32.760Z,85.70
2019-04-07T00:56:05.766Z,85.50
2019-04-07T00:58:40.967Z,85.60
2019-04-07T01:01:12.748Z,85.50
2019-04-07T01:03:43.752Z,85.20
2019-04-07T01:06:16.586Z,85.30
2019-04-07T01:08:46.659Z,85.40
2019-04-07T01:11:21.635Z,85.10
2019-04-07T01:13:54.190Z,85.40
2019-04-07T01:16:26.445Z,85.60
2019-04-07T01:19:00.378Z,85.70
2019-04-07T01:21:31.511Z,85.50
2019-04-07T01:24:04.560Z,85.40
2019-04-07T01:26:37.197Z,85.60
2019-04-07T01:29:10.191Z,85.50
2019-04-07T01:31:40.462Z,85.70
2019-04-07T01:34:11.798Z,85.70
2019-04-07T01:36:46.114Z,85.60
2019-04-07T01:39:16.798Z,85.50
2019-04-07T01:41:51.085Z,85.50
2019-04-07T01:44:23.403Z,85.60
2019-04-07T01:47:13.645Z,85.60
2019-04-07T01:50:05.680Z,85.80
2019-04-07T01:52:38.101Z,85.90
2019-04-07T01:55:19.121Z,86.20
2019-04-07T01:58:10.795Z,85.90
2019-04-07T02:00:42.919Z,85.60
2019-04-07T02:03:21.829Z,85.50
2019-04-07T02:06:02.771Z,85.30
2019-04-07T02:08:42.866Z,85.60
2019-04-07T02:11:15.636Z,86.00
2019-04-07T02:14:00.461Z,86.50
2019-04-07T02:16:38.333Z,86.60
2019-04-07T02:19:11.064Z,86.20
2019-04-07T02:22:00.534Z,87.00
2019-04-07T02:24:36.088Z,88.30
2019-04-07T02:27:26.777Z,89.40
2019-04-07T02:30:19.761Z,89.90
2019-04-07T02:32:58.410Z,89.90
2019-04-07T02:35:37.795Z,89.90
2019-04-07T02:38:16.331Z,89.90
2019-04-07T02:40:56.830Z,89.80
2019-04-07T02:43:27.676Z,89.60
2019-04-07T02:46:14.808Z,89.40
2019-04-07T02:48:49.230Z,89.50
2019-04-07T02:51:38.736Z,88.70
2019-04-07T02:54:10.382Z,88.20
2019-04-07T02:56:46.189Z,88.80
2019-04-07T02:59:29.222Z,88.80
2019-04-07T03:02:11.050Z,88.60
2019-04-07T03:04:51.173Z,88.40
2019-04-07T03:07:43.084Z,88.40
2019-04-07T03:13:39.578Z,88.30
2019-04-07T03:19:16.853Z,87.60
2019-04-07T03:21:55.586Z,88.20
2019-04-07T03:24:28.693Z,88.30
2019-04-07T03:27:06.613Z,88.20
2019-04-07T03:29:42.476Z,87.90
2019-04-07T03:38:12.086Z,87.10
2019-04-07T03:40:49.804Z,86.90
2019-04-07T03:43:41.698Z,86.80
2019-04-07T03:46:17.308Z,87.30
2019-04-07T03:48:53.609Z,87.70
2019-04-07T03:53:59.370Z,88.10
2019-04-07T03:56:48.422Z,88.20
2019-04-07T03:59:28.986Z,88.40
2019-04-07T04:02:19.745Z,88.20
2019-04-07T04:04:52.446Z,87.60
2019-04-07T04:07:31.663Z,87.60
2019-04-07T04:10:05.438Z,87.50
2019-04-07T04:12:46.779Z,87.40
2019-04-07T04:15:22.553Z,87.30
2019-04-07T04:17:55.523Z,87.60
2019-04-07T04:20:28.296Z,88.10
2019-04-07T04:22:59.869Z,88.10
2019-04-07T04:25:32.036Z,88.10
2019-04-07T04:28:04.716Z,88.20
2019-04-07T04:30:37.051Z,88.70
2019-04-07T04:33:08.965Z,89.00
2019-04-07T04:35:42.725Z,88.80
2019-04-07T04:38:12.970Z,88.70
2019-04-07T04:40:46.854Z,89.40
2019-04-07T04:43:18.089Z,89.90
2019-04-07T04:45:48.415Z,89.60
2019-04-07T04:48:19.555Z,89.60
2019-04-07T04:50:53.103Z,89.20
2019-04-07T04:53:25.612Z,89.20
2019-04-07T04:55:56.481Z,89.20
2019-04-07T04:58:28.834Z,88.90
2019-04-07T05:01:00.910Z,88.90
2019-04-07T05:03:33.877Z,88.90
2019-04-07T05:06:04.157Z,88.90
2019-04-07T05:08:46.790Z,88.70
2019-04-07T05:14:03.718Z,88.20
2019-04-07T05:16:36.514Z,88.40
2019-04-07T05:19:09.930Z,88.80
2019-04-07T05:21:44.447Z,88.50
2019-04-07T05:24:18.180Z,88.30
2019-04-07T05:26:51.910Z,88.10
2019-04-07T05:29:23.718Z,87.90
2019-04-07T05:31:55.702Z,87.90
2019-04-07T05:34:27.933Z,87.80
2019-04-07T05:36:58.691Z,87.60
2019-04-07T05:39:29.922Z,87.40
2019-04-07T05:42:02.587Z,86.90
2019-04-07T05:44:35.638Z,86.60
2019-04-07T05:47:12.300Z,86.10
2019-04-07T05:49:41.706Z,86.00
2019-04-07T05:52:16.104Z,86.60
2019-04-07T05:54:49.939Z,87.00
2019-04-07T05:57:21.559Z,86.50
2019-04-07T05:59:53.875Z,86.80
2019-04-07T06:02:25.593Z,86.40
2019-04-07T06:04:59.502Z,86.70
2019-04-07T06:07:33.524Z,86.90
2019-04-07T06:10:09.057Z,87.50
2019-04-07T06:12:46.351Z,87.80
2019-04-07T06:15:20.985Z,86.70
2019-04-07T06:17:55.501Z,86.50
2019-04-07T06:20:25.291Z,86.50
2019-04-07T06:22:57.512Z,86.80
2019-04-07T06:25:33.261Z,87.10
2019-04-07T06:28:05.487Z,86.70
2019-04-07T06:30:37.251Z,86.40
2019-04-07T06:33:13.385Z,86.60
2019-04-07T06:35:47.460Z,86.60
2019-04-07T06:38:30.505Z,86.20
2019-04-07T06:40:56.599Z,85.70
2019-04-07T06:43:27.716Z,85.00
2019-04-07T06:46:11.715Z,83.90
2019-04-07T06:48:45.096Z,84.00
2019-04-07T06:51:17.370Z,83.30
2019-04-07T06:53:59.013Z,83.80
2019-04-07T06:56:48.163Z,83.90
2019-04-07T06:59:21.909Z,82.80
2019-04-07T07:02:02.183Z,82.60
2019-04-07T07:04:35.584Z,82.90
2019-04-07T07:07:19.162Z,82.80
2019-04-07T07:09:57.950Z,81.90
2019-04-07T07:12:34.822Z,80.90
2019-04-07T07:15:24.490Z,80.50
2019-04-07T07:18:05.156Z,79.90
2019-04-07T07:20:40.395Z,78.90
2019-04-07T07:23:15.827Z,78.30
2019-04-07T07:25:47.753Z,77.50
2019-04-07T07:28:21.106Z,76.70
2019-04-07T07:30:53.648Z,76.90
2019-04-07T07:33:26.950Z,76.50
2019-04-07T07:35:59.946Z,76.80
2019-04-07T07:38:32.454Z,75.90
2019-04-07T07:41:03.617Z,74.30
2019-04-07T07:43:36.978Z,75.50
2019-04-07T07:46:08.822Z,74.70
2019-04-07T07:48:40.082Z,73.80
2019-04-07T07:51:14.302Z,72.50
2019-04-07T07:53:47.636Z,72.70
2019-04-07T07:56:17.774Z,71.50
2019-04-07T07:58:51.080Z,70.40
2019-04-07T08:01:24.613Z,70.30
2019-04-07T08:06:29.431Z,68.10
2019-04-07T08:09:11.953Z,68.20
2019-04-07T08:11:35.750Z,67.60
2019-04-07T08:14:14.217Z,68.20
2019-04-07T08:16:42.569Z,67.40
2019-04-07T08:19:13.542Z,66.90
2019-04-07T08:21:50.335Z,66.70
2019-04-07T08:24:19.659Z,66.90
2019-04-07T08:26:56.336Z,66.20
2019-04-07T08:29:25.841Z,65.30
2019-04-07T08:34:37.241Z,64.90
2019-04-07T08:37:15.154Z,65.90
2019-04-07T08:39:46.510Z,65.30
2019-04-07T08:42:21.570Z,63.80
2019-04-07T08:44:53.357Z,62.40
2019-04-07T08:47:23.435Z,63.30
2019-04-07T08:49:57.782Z,63.10
2019-04-07T08:52:28.184Z,63.00
2019-04-07T08:54:59.380Z,62.90
2019-04-07T08:57:32.479Z,61.60
2019-04-07T09:00:05.194Z,61.80
2019-04-07T09:02:39.061Z,60.70
2019-04-07T09:05:16.216Z,61.20
2019-04-07T09:10:25.891Z,64.20
2019-04-07T09:13:01.774Z,65.40
2019-04-07T09:15:33.816Z,64.40
2019-04-07T09:18:18.116Z,63.20
2019-04-07T09:21:10.157Z,63.10
2019-04-07T09:23:52.309Z,63.20
2019-04-07T09:26:26.088Z,62.80
2019-04-07T09:29:19.092Z,63.20
2019-04-07T09:32:08.303Z,62.80
2019-04-07T09:34:50.578Z,63.20
2019-04-07T09:37:27.227Z,63.10
2019-04-07T09:40:18.527Z,64.10
2019-04-07T09:43:01.097Z,63.90
2019-04-07T09:45:38.535Z,63.60
2019-04-07T09:48:13.703Z,63.70
2019-04-07T09:50:44.826Z,64.30
2019-04-07T09:53:38.212Z,64.20
2019-04-07T09:56:20.623Z,64.80
2019-04-07T09:58:58.787Z,63.80
2019-04-07T10:01:30.799Z,64.50
2019-04-07T10:06:43.263Z,64.40
2019-04-07T10:09:24.152Z,63.60
2019-04-07T10:12:12.894Z,60.80
2019-04-07T10:14:55.271Z,61.30
2019-04-07T10:17:31.741Z,60.80
2019-04-07T10:20:38.502Z,59.70
2019-04-07T10:23:20.804Z,60.20
2019-04-07T10:25:58.417Z,60.20
2019-04-07T10:28:40.186Z,60.70
2019-04-07T10:31:49.452Z,59.90
2019-04-07T10:34:24.995Z,60.20
2019-04-07T10:37:02.929Z,61.00
2019-04-07T10:39:55.947Z,61.20
2019-04-07T10:42:40.104Z,60.30
2019-04-07T10:45:12.911Z,60.90
2019-04-07T10:47:50.250Z,60.20
2019-04-07T10:50:38.504Z,59.90
2019-04-07T10:53:17.048Z,60.50
2019-04-07T10:55:52.174Z,58.50
2019-04-07T10:58:43.653Z,57.60
2019-04-07T11:01:36.202Z,57.20
2019-04-07T11:04:24.588Z,57.70
2019-04-07T11:07:17.492Z,57.80
2019-04-07T11:10:11.454Z,59.30
2019-04-07T11:12:43.312Z,58.70
2019-04-07T11:15:18.464Z,58.00
2019-04-07T11:18:01.136Z,55.90
2019-04-07T11:20:35.066Z,54.90
2019-04-07T11:23:15.498Z,55.90
2019-04-07T11:25:53.962Z,56.10
2019-04-07T11:28:43.513Z,55.60
2019-04-07T11:31:23.299Z,55.80
2019-04-07T11:34:05.487Z,54.70
2019-04-07T11:42:15.282Z,52.60
2019-04-07T11:44:51.610Z,52.90
2019-04-07T11:47:31.753Z,52.80
2019-04-07T11:50:12.496Z,51.10
2019-04-07T11:53:00.657Z,52.40
2019-04-07T11:55:38.858Z,53.70
2019-04-07T11:58:20.142Z,53.00
2019-04-07T12:01:05.738Z,53.90
2019-04-07T12:03:57.152Z,54.60
2019-04-07T12:06:29.749Z,54.60
2019-04-07T12:09:06.528Z,55.00
2019-04-07T12:11:46.514Z,55.80
2019-04-07T12:14:18.141Z,55.30
2019-04-07T12:16:58.371Z,53.00
2019-04-07T12:19:32.164Z,53.10
2019-04-07T12:22:10.466Z,52.60
2019-04-07T12:25:00.734Z,52.10
2019-04-07T12:27:33.401Z,51.90
2019-04-07T12:30:06.559Z,51.10
2019-04-07T12:32:55.104Z,48.90
2019-04-07T12:35:38.748Z,48.60
2019-04-07T12:38:28.621Z,49.00
2019-04-07T12:41:15.073Z,49.90
2019-04-07T12:46:24.761Z,49.00
2019-04-07T12:48:59.952Z,48.70
2019-04-07T12:51:32.856Z,47.60
2019-04-07T12:54:22.107Z,47.10
2019-04-07T12:57:10.582Z,45.40
2019-04-07T12:59:51.422Z,45.70
2019-04-07T13:02:42.485Z,46.20
2019-04-07T13:08:00.483Z,45.90
2019-04-07T13:10:34.019Z,47.30
2019-04-07T13:13:30.218Z,45.60
2019-04-07T13:16:07.959Z,44.80
2019-04-07T13:18:56.999Z,45.10
2019-04-07T13:21:44.208Z,46.60
2019-04-07T13:24:28.894Z,47.20
2019-04-07T13:27:06.680Z,47.50
2019-04-07T13:29:51.809Z,48.80
2019-04-07T13:32:38.208Z,49.50
2019-04-07T13:35:04.802Z,48.90
2019-04-07T13:37:38.363Z,47.40
2019-04-07T13:40:15.995Z,47.90
2019-04-07T13:42:50.923Z,47.50
2019-04-07T13:45:44.638Z,47.00
2019-04-07T13:48:20.811Z,46.10
2019-04-07T13:51:02.078Z,46.60
2019-04-07T13:53:41.052Z,45.40
2019-04-07T13:59:04.053Z,46.10
2019-04-07T14:01:38.479Z,45.70
2019-04-07T14:04:21.398Z,46.70
2019-04-07T14:07:02.389Z,46.40
2019-04-07T14:12:35.109Z,45.90
2019-04-07T14:15:11.456Z,45.60
2019-04-07T14:17:58.749Z,44.70
2019-04-07T14:20:40.569Z,44.60
2019-04-07T14:23:16.451Z,47.00
2019-04-07T14:25:59.091Z,46.00
2019-04-07T14:28:47.596Z,45.60
2019-04-07T14:31:35.508Z,45.80
2019-04-07T14:34:11.819Z,46.50
2019-04-07T14:36:45.762Z,47.60
2019-04-07T14:39:39.079Z,48.00
2019-04-07T14:42:11.937Z,47.20
2019-04-07T14:44:56.765Z,46.30
2019-04-07T14:47:32.481Z,46.20
2019-04-07T14:50:11.885Z,46.30
2019-04-07T14:52:49.829Z,46.10
2019-04-07T14:55:36.809Z,47.40
2019-04-07T14:58:13.054Z,47.90
2019-04-07T15:00:47.472Z,48.40
2019-04-07T15:03:19.071Z,48.40
2019-04-07T15:05:56.503Z,49.20
2019-04-07T15:08:42.048Z,48.60
2019-04-07T15:11:15.802Z,48.20
2019-04-07T15:13:47.396Z,47.60
2019-04-07T15:16:21.630Z,48.90
2019-04-07T15:18:53.417Z,48.40
2019-04-07T15:21:28.610Z,48.60
2019-04-07T15:24:05.670Z,48.90
2019-04-07T15:26:40.130Z,49.40
2019-04-07T15:29:13.550Z,50.00
2019-04-07T15:31:49.069Z,50.60
2019-04-07T15:34:19.881Z,50.60
2019-04-07T15:36:51.265Z,50.50
2019-04-07T15:39:28.023Z,50.50
2019-04-07T15:42:00.878Z,50.60
2019-04-07T15:44:39.690Z,50.80
2019-04-07T15:47:12.535Z,51.70
2019-04-07T15:49:43.783Z,51.60
2019-04-07T15:52:14.900Z,51.90
2019-04-07T15:54:46.832Z,51.30
2019-04-07T15:57:21.699Z,52.00
2019-04-07T15:59:54.048Z,52.00
2019-04-07T16:02:27.440Z,52.40
2019-04-07T16:05:02.408Z,52.70
2019-04-07T16:07:33.196Z,53.00
2019-04-07T16:10:04.470Z,53.10
2019-04-07T16:12:44.052Z,53.80
2019-04-07T16:15:16.399Z,54.20
2019-04-07T16:17:47.694Z,54.00
2019-04-07T16:20:23.977Z,54.60
2019-04-07T16:22:56.232Z,54.50
2019-04-07T16:25:28.830Z,55.30
2019-04-07T16:28:00.673Z,55.90
2019-04-07T16:30:30.685Z,55.60
2019-04-07T16:33:06.045Z,55.70
2019-04-07T16:35:39.831Z,56.00
2019-04-07T16:38:14.129Z,56.20
2019-04-07T16:40:50.185Z,56.70
2019-04-07T16:43:24.151Z,57.20
2019-04-07T16:45:56.929Z,58.20
2019-04-07T16:48:28.329Z,59.00
2019-04-07T16:53:36.478Z,59.60
2019-04-07T16:56:07.488Z,59.90
2019-04-07T17:01:12.139Z,60.50
2019-04-07T17:03:46.396Z,60.70
2019-04-07T17:06:17.822Z,61.20
2019-04-07T17:08:51.517Z,61.30
2019-04-07T17:13:47.560Z,61.40
2019-04-07T17:16:24.681Z,61.90
2019-04-07T17:18:56.204Z,62.00
2019-04-07T17:21:29.917Z,62.20
2019-04-07T17:24:01.348Z,62.30
2019-04-07T17:26:38.356Z,62.30
2019-04-07T17:29:11.776Z,62.60
2019-04-07T17:31:44.512Z,62.70
2019-04-07T17:34:17.369Z,63.00
2019-04-07T17:36:55.981Z,63.40
2019-04-07T17:39:28.078Z,63.60
2019-04-07T17:42:03.487Z,63.90
2019-04-07T17:44:52.645Z,64.10
2019-04-07T17:47:29.475Z,64.00
2019-04-07T17:50:03.011Z,64.30
2019-04-07T17:55:43.035Z,64.70
2019-04-07T17:58:17.234Z,64.80
2019-04-07T18:01:09.262Z,65.10
2019-04-07T18:04:00.663Z,65.40
2019-04-07T18:06:32.364Z,66.00
2019-04-07T18:09:12.816Z,66.20
2019-04-07T18:12:06.806Z,66.50
2019-04-07T18:17:28.823Z,67.00
2019-04-07T18:20:08.998Z,67.30
2019-04-07T18:22:43.931Z,67.50
2019-04-07T18:25:17.312Z,67.60
2019-04-07T18:27:50.489Z,68.00
2019-04-07T18:30:24.767Z,68.10
2019-04-07T18:33:09.815Z,68.30
2019-04-07T18:35:42.043Z,68.60
2019-04-07T18:38:14.963Z,68.80
2019-04-07T18:40:55.783Z,68.90
2019-04-07T18:46:28.259Z,69.70
2019-04-07T18:49:10.346Z,70.10
2019-04-07T18:51:49.737Z,70.30
2019-04-07T18:54:38.836Z,70.40
2019-04-07T18:57:27.006Z,70.80
2019-04-07T19:00:04.277Z,70.90
2019-04-07T19:02:50.472Z,71.20
2019-04-07T19:05:23.205Z,71.40
2019-04-07T19:08:10.055Z,71.60
2019-04-07T19:10:55.188Z,71.90
2019-04-07T19:13:33.536Z,72.20
2019-04-07T19:16:10.986Z,72.20
2019-04-07T19:18:43.534Z,72.40
2019-04-07T19:21:31.607Z,72.40
2019-04-07T19:24:20.566Z,72.50
2019-04-07T19:27:31.021Z,72.70
2019-04-07T19:30:15.415Z,72.80
2019-04-07T19:32:56.573Z,73.10
2019-04-07T19:35:29.718Z,73.30
2019-04-07T19:38:04.870Z,73.30
2019-04-07T19:40:38.105Z,73.40
2019-04-07T19:43:22.929Z,73.60
2019-04-07T19:46:02.700Z,73.70
2019-04-07T19:48:52.355Z,73.80
2019-04-07T19:54:16.107Z,74.20
2019-04-07T19:57:03.299Z,74.30
2019-04-07T19:59:44.638Z,74.50
2019-04-07T20:02:32.708Z,74.60
2019-04-07T20:05:05.738Z,74.80
2019-04-07T20:07:48.244Z,75.00
2019-04-07T20:10:22.046Z,75.10
2019-04-07T20:13:06.286Z,75.20
2019-04-07T20:15:45.114Z,75.50
2019-04-07T20:18:26.532Z,75.80
2019-04-07T20:20:57.271Z,76.00
2019-04-07T20:23:31.868Z,76.60
2019-04-07T20:26:05.786Z,76.70
2019-04-07T20:28:45.087Z,77.10
2019-04-07T20:31:27.752Z,77.30
2019-04-07T20:34:06.171Z,76.90
2019-04-07T20:36:44.402Z,77.20
2019-04-07T20:39:35.122Z,77.10
2019-04-07T20:42:18.200Z,77.30
2019-04-07T20:44:59.975Z,77.60
2019-04-07T20:47:38.940Z,77.80
2019-04-07T20:50:16.499Z,78.00
2019-04-07T20:52:54.729Z,78.60
2019-04-07T20:55:37.795Z,78.80
2019-04-07T20:58:18.847Z,78.60
2019-04-07T21:00:57.720Z,78.60
2019-04-07T21:03:40.246Z,78.60
2019-04-07T21:06:25.345Z,78.90
2019-04-07T21:08:56.613Z,78.00
2019-04-07T21:11:31.358Z,78.10
2019-04-07T21:14:07.600Z,78.20
2019-04-07T21:16:43.247Z,78.30
2019-04-07T21:19:30.615Z,78.40
2019-04-07T21:22:05.527Z,78.40
2019-04-07T21:24:50.540Z,78.40
2019-04-07T21:27:20.519Z,78.70
2019-04-07T21:29:53.735Z,78.70
2019-04-07T21:32:48.508Z,78.60
2019-04-07T21:35:23.752Z,79.30
2019-04-07T21:38:06.065Z,79.30
2019-04-07T21:43:40.978Z,79.00
2019-04-07T21:46:13.173Z,78.80
2019-04-07T21:48:48.394Z,79.00
2019-04-07T21:51:26.886Z,79.10
2019-04-07T21:54:17.865Z,79.70
2019-04-07T21:56:53.939Z,80.10
2019-04-07T21:59:35.389Z,80.40
2019-04-07T22:02:23.761Z,80.50
2019-04-07T22:04:57.201Z,81.10
2019-04-07T22:07:37.589Z,81.90
2019-04-07T22:10:11.599Z,82.10
2019-04-07T22:12:42.909Z,82.30
2019-04-07T22:15:15.742Z,82.30
2019-04-07T22:17:45.815Z,82.00
2019-04-07T22:20:21.699Z,82.00
2019-04-07T22:22:57.885Z,81.50
2019-04-07T22:25:36.214Z,81.60
2019-04-07T22:28:07.678Z,81.30
2019-04-07T22:30:41.245Z,81.50
2019-04-07T22:33:12.419Z,81.10
2019-04-07T22:35:44.484Z,81.00
2019-04-07T22:38:19.747Z,80.40
2019-04-07T22:40:50.573Z,80.60
2019-04-07T22:43:24.841Z,80.60
2019-04-07T22:46:07.254Z,80.40
2019-04-07T22:48:31.109Z,80.50
2019-04-07T22:51:09.944Z,80.80
2019-04-07T22:53:38.860Z,81.20
2019-04-07T22:56:09.858Z,81.20
2019-04-07T22:58:42.342Z,80.90
2019-04-07T23:01:12.953Z,80.70
2019-04-07T23:03:44.015Z,81.10
2019-04-07T23:06:16.901Z,81.30
2019-04-07T23:08:49.255Z,81.40
2019-04-07T23:11:19.178Z,81.70
2019-04-07T23:13:50.216Z,81.80
2019-04-07T23:16:21.860Z,81.70
2019-04-07T23:18:54.184Z,81.90
2019-04-07T23:21:25.517Z,81.80
2019-04-07T23:23:58.023Z,81.90
2019-04-07T23:26:28.153Z,82.10
2019-04-07T23:29:00.723Z,82.30
2019-04-07T23:31:34.198Z,82.40
2019-04-07T23:34:06.304Z,82.50
2019-04-07T23:36:38.240Z,82.50
2019-04-07T23:39:10.856Z,82.80
2019-04-07T23:44:12.993Z,82.70
2019-04-07T23:46:44.092Z,82.70
2019-04-07T23:49:15.398Z,82.40
2019-04-07T23:51:46.454Z,82.40
2019-04-07T23:54:18.897Z,81.90
2019-04-07T23:56:54.007Z,81.80
